Time;durP1;ratioP1;P1;durP2;ratioP2;P2;SDS_P1;SDS_P2;PMS_P1;PMS_P2;Temp;Humidity;BMP_temperature;BMP_pressure;BME280_temperature;BME280_humidity;BME280_pressure;Samples;Min_cycle;Max_cycle;Signal;HPM_P1;HPM_P2
2021/09/13 00:01:44;;;;;;;2.83;1.20;;;;;;;21.95;57.27;101864.34;5055207;28;20266;-66
2021/09/13 00:04:09;;;;;;;2.67;1.15;;;;;;;21.93;57.22;101861.81;5055099;28;20027;-64
2021/09/13 00:06:37;;;;;;;2.15;1.20;;;;;;;21.93;57.17;101863.66;5054399;28;20124;-67
2021/09/13 00:09:02;;;;;;;2.63;1.10;;;;;;;21.92;57.11;101861.94;5054905;28;20033;-66
2021/09/13 00:11:28;;;;;;;2.58;1.27;;;;;;;21.91;57.18;101860.28;5055201;28;20083;-65
2021/09/13 00:13:53;;;;;;;2.90;1.25;;;;;;;21.91;57.23;101852.31;5053711;28;20040;-65
2021/09/13 00:16:18;;;;;;;2.30;1.25;;;;;;;21.91;57.23;101853.16;5055190;28;20423;-65
2021/09/13 00:18:44;;;;;;;2.30;1.08;;;;;;;21.91;56.94;101854.97;5055253;28;20413;-66
2021/09/13 00:21:09;;;;;;;2.93;1.17;;;;;;;21.89;56.97;101851.63;5054056;28;20020;-65
2021/09/13 00:23:34;;;;;;;2.42;1.30;;;;;;;21.89;56.79;101851.63;5054981;28;20353;-66
2021/09/13 00:26:00;;;;;;;2.78;1.48;;;;;;;21.88;57.28;101849.91;5054496;28;20043;-66
2021/09/13 00:28:25;;;;;;;3.57;1.50;;;;;;;21.88;56.83;101844.59;5053931;28;20017;-66
2021/09/13 00:30:53;;;;;;;2.17;1.30;;;;;;;21.86;56.80;101836.78;5054602;28;20757;-65
2021/09/13 00:33:18;;;;;;;2.33;1.30;;;;;;;21.87;56.88;101841.13;5054020;28;20029;-65
2021/09/13 00:35:46;;;;;;;2.30;1.20;;;;;;;21.86;56.87;101844.72;5054772;28;20173;-65
2021/09/13 00:38:11;;;;;;;2.78;1.20;;;;;;;21.86;56.80;101847.38;5054173;28;20417;-65
2021/09/13 00:40:37;;;;;;;2.78;1.30;;;;;;;21.85;56.95;101845.69;5053819;28;20036;-66
2021/09/13 00:43:05;;;;;;;2.63;1.10;;;;;;;21.85;56.50;101828.94;5053997;28;20094;-66
2021/09/13 00:45:31;;;;;;;3.20;1.20;;;;;;;21.84;56.76;101841.38;5054111;28;20086;-66
2021/09/13 00:47:59;;;;;;;3.47;1.40;;;;;;;21.83;56.95;101836.19;5053529;28;20068;-64
2021/09/13 00:50:25;;;;;;;2.20;1.10;;;;;;;21.83;56.56;101830.88;5054481;28;20024;-65
2021/09/13 00:52:53;;;;;;;2.00;1.10;;;;;;;21.83;56.74;101831.72;5054109;28;20023;-66
2021/09/13 00:55:23;;;;;;;2.78;1.13;;;;;;;21.83;56.51;101836.19;5053735;28;20033;-65
2021/09/13 00:58:07;;;;;;;2.03;1.15;;;;;;;21.82;56.54;101837.97;5053944;28;20033;-66
2021/09/13 01:00:36;;;;;;;3.25;1.40;;;;;;;21.82;56.64;101837.16;5054437;28;20033;-66
2021/09/13 01:03:02;;;;;;;2.83;1.40;;;;;;;21.82;56.32;101839.81;5053074;28;20079;-66
2021/09/13 01:05:27;;;;;;;2.50;1.25;;;;;;;21.81;56.61;101832.78;5054157;28;20025;-66
2021/09/13 01:07:53;;;;;;;2.30;1.20;;;;;;;21.80;56.38;101836.44;5053804;28;20119;-66
2021/09/13 01:10:24;;;;;;;2.20;1.20;;;;;;;21.80;56.33;101839.09;5053489;28;20423;-65
2021/09/13 01:12:49;;;;;;;2.88;1.10;;;;;;;21.80;56.21;101839.09;5053854;28;20107;-65
2021/09/13 01:15:14;;;;;;;3.97;1.30;;;;;;;21.79;56.63;101838.22;5054127;28;20459;-66
2021/09/13 01:17:40;;;;;;;2.45;1.20;;;;;;;21.78;56.52;101839.22;5053423;28;20025;-66
2021/09/13 01:20:12;;;;;;;2.25;1.15;;;;;;;21.78;56.46;101833.03;5053679;28;20059;-66
2021/09/13 01:22:39;;;;;;;2.08;1.05;;;;;;;21.78;56.22;101844.53;5052964;28;20534;-66
2021/09/13 01:25:05;;;;;;;2.72;1.30;;;;;;;21.77;56.21;101837.53;5053681;28;20507;-66
2021/09/13 01:27:30;;;;;;;1.80;1.08;;;;;;;21.76;56.20;101835.81;5053783;28;20025;-65
2021/09/13 01:29:55;;;;;;;2.55;1.20;;;;;;;21.74;56.44;101841.25;5052902;28;20056;-66
2021/09/13 01:32:21;;;;;;;2.67;1.27;;;;;;;21.73;56.24;101834.28;5053727;28;20494;-66
2021/09/13 01:34:46;;;;;;;2.03;1.10;;;;;;;21.72;56.30;101834.41;5053584;28;20029;-65
2021/09/13 01:37:11;;;;;;;2.80;1.20;;;;;;;21.73;56.29;101842.25;5052468;28;20533;-66
2021/09/13 01:39:39;;;;;;;2.58;1.20;;;;;;;21.74;56.40;101849.22;5053900;28;20270;-65
2021/09/13 01:42:05;;;;;;;2.25;1.40;;;;;;;21.72;56.04;101845.00;5053359;28;20021;-65
2021/09/13 01:44:30;;;;;;;1.92;1.00;;;;;;;21.72;56.16;101848.50;5052984;28;20017;-67
2021/09/13 01:46:58;;;;;;;2.03;1.13;;;;;;;21.72;55.98;101851.16;5053206;28;20469;-66
2021/09/13 01:49:24;;;;;;;2.42;1.20;;;;;;;21.72;56.01;101842.38;5053602;28;20271;-66
2021/09/13 01:51:49;;;;;;;2.53;1.10;;;;;;;21.69;55.96;101840.78;5052461;28;20028;-66
2021/09/13 01:54:17;;;;;;;2.77;1.17;;;;;;;21.70;55.83;101836.34;5053446;28;20029;-66
2021/09/13 01:56:42;;;;;;;2.42;1.10;;;;;;;21.70;56.08;101844.31;5052486;28;20266;-65
2021/09/13 01:59:08;;;;;;;2.00;1.20;;;;;;;21.68;55.84;101841.78;5052843;28;20063;-66
2021/09/13 02:01:33;;;;;;;2.08;1.08;;;;;;;21.70;56.08;101846.97;5053538;28;20021;-66
2021/09/13 02:03:58;;;;;;;1.98;1.10;;;;;;;21.68;55.94;101839.13;5053126;28;20053;-66
2021/09/13 02:06:23;;;;;;;2.30;1.20;;;;;;;21.67;56.03;101837.44;5052431;28;20503;-67
2021/09/13 02:08:51;;;;;;;1.45;0.90;;;;;;;21.61;56.13;101829.97;5053185;28;20017;-65
2021/09/13 02:11:17;;;;;;;2.78;0.95;;;;;;;21.66;55.95;101841.03;5053223;28;20029;-65
2021/09/13 02:13:42;;;;;;;2.25;1.20;;;;;;;21.66;55.79;101838.38;5052056;28;20033;-66
2021/09/13 02:16:07;;;;;;;2.75;1.10;;;;;;;21.66;55.78;101834.91;5052359;28;20052;-65
2021/09/13 02:18:33;;;;;;;1.70;1.05;;;;;;;21.66;55.75;101838.38;5052563;28;20028;-66
2021/09/13 02:20:59;;;;;;;2.45;1.20;;;;;;;21.65;55.87;101830.53;5052066;28;20025;-66
2021/09/13 02:23:24;;;;;;;2.28;1.02;;;;;;;21.63;55.91;101824.53;5052704;28;20104;-66
2021/09/13 02:25:50;;;;;;;2.03;1.20;;;;;;;21.63;55.81;101821.88;5051728;28;20040;-66
2021/09/13 02:28:15;;;;;;;1.88;1.00;;;;;;;21.63;55.77;101821.88;5052869;28;20021;-65
2021/09/13 02:30:41;;;;;;;1.80;1.10;;;;;;;21.64;55.62;101827.06;5053032;28;20025;-66
2021/09/13 02:33:06;;;;;;;2.28;1.10;;;;;;;21.63;55.70;101833.31;5051811;28;20033;-65
2021/09/13 02:35:34;;;;;;;1.90;1.00;;;;;;;21.63;55.70;101819.22;5052401;28;20033;-65
2021/09/13 02:37:59;;;;;;;1.67;0.98;;;;;;;21.61;55.64;101822.00;5052208;28;20024;-66
2021/09/13 02:40:25;;;;;;;1.85;0.98;;;;;;;21.60;55.44;101822.13;5051458;28;20021;-65
2021/09/13 02:42:50;;;;;;;3.03;1.20;;;;;;;21.59;55.71;101821.28;5052065;28;20107;-66
2021/09/13 02:45:16;;;;;;;2.75;1.30;;;;;;;21.60;55.26;101820.31;5052371;28;20068;-65
2021/09/13 02:47:41;;;;;;;2.88;1.17;;;;;;;21.60;55.35;101824.78;5051347;28;20045;-66
2021/09/13 02:50:11;;;;;;;3.90;1.13;;;;;;;21.60;55.31;101822.13;5051867;28;20296;-66
2021/09/13 02:52:39;;;;;;;3.47;1.10;;;;;;;21.60;55.39;101824.78;5052259;28;20466;-66
2021/09/13 02:55:06;;;;;;;2.08;1.15;;;;;;;21.56;55.56;101818.88;5051232;28;20035;-65
2021/09/13 02:57:31;;;;;;;2.55;1.30;;;;;;;21.58;55.24;101824.91;5051959;28;20087;-66
2021/09/13 02:59:57;;;;;;;2.05;1.00;;;;;;;21.56;55.25;101822.38;5051803;28;20033;-66
2021/09/13 03:02:22;;;;;;;3.17;1.30;;;;;;;21.57;55.36;101817.94;5051298;28;20075;-65
2021/09/13 03:04:50;;;;;;;1.80;1.10;;;;;;;21.56;55.18;101819.72;5051726;28;20044;-65
2021/09/13 03:07:15;;;;;;;2.53;1.20;;;;;;;21.56;55.16;101822.38;5051508;28;20048;-65
2021/09/13 03:09:41;;;;;;;1.70;0.90;;;;;;;21.56;55.08;101825.03;5051230;28;20021;-65
2021/09/13 03:12:11;;;;;;;2.53;1.25;;;;;;;21.54;55.20;101824.31;5051742;28;20878;-65
2021/09/13 03:14:36;;;;;;;2.83;1.10;;;;;;;21.53;55.34;101814.66;5051895;28;20392;-66
2021/09/13 03:17:02;;;;;;;3.50;1.27;;;;;;;21.54;55.26;101813.72;5050976;28;20029;-65
2021/09/13 03:19:27;;;;;;;1.70;1.00;;;;;;;21.51;55.29;101811.28;5051769;28;20456;-65
2021/09/13 03:21:52;;;;;;;1.67;1.05;;;;;;;21.54;55.30;101818.19;5051752;28;20033;-65
2021/09/13 03:24:19;;;;;;;2.25;1.10;;;;;;;21.54;55.30;101815.53;5051273;28;20032;-65
2021/09/13 03:26:45;;;;;;;2.10;1.10;;;;;;;21.53;55.01;101819.13;5051776;28;20085;-65
2021/09/13 03:29:11;;;;;;;1.83;1.00;;;;;;;21.52;55.21;101818.31;5050763;28;20108;-64
2021/09/13 03:31:36;;;;;;;3.28;1.17;;;;;;;21.51;55.20;101815.78;5051835;28;20096;-65
2021/09/13 03:34:02;;;;;;;2.58;0.95;;;;;;;21.51;55.11;101813.94;5051652;28;20143;-65
2021/09/13 03:36:27;;;;;;;1.95;1.10;;;;;;;21.51;54.95;101819.25;5051112;28;20021;-65
2021/09/13 03:38:52;;;;;;;2.08;1.15;;;;;;;21.51;55.10;101818.41;5051422;28;20104;-65
2021/09/13 03:41:20;;;;;;;2.38;1.02;;;;;;;21.51;54.93;101826.38;5051761;28;20112;-66
2021/09/13 03:43:46;;;;;;;1.77;1.02;;;;;;;21.51;54.94;101827.22;5050979;28;20079;-66
2021/09/13 03:46:14;;;;;;;2.42;1.00;;;;;;;21.48;54.77;101827.47;5051322;28;20024;-65
2021/09/13 03:48:39;;;;;;;1.38;0.88;;;;;;;21.44;55.06;101819.84;5051445;28;20056;-66
2021/09/13 03:51:04;;;;;;;1.75;1.13;;;;;;;21.49;54.91;101828.28;5050588;28;20525;-66
2021/09/13 03:53:29;;;;;;;1.20;0.82;;;;;;;21.47;54.73;101825.72;5051363;28;20041;-65
2021/09/13 03:55:55;;;;;;;2.20;1.00;;;;;;;21.47;54.58;101819.59;5051036;28;20036;-65
2021/09/13 03:58:20;;;;;;;2.40;1.08;;;;;;;21.47;54.65;101814.28;5050748;28;20189;-65
2021/09/13 04:00:46;;;;;;;1.80;1.03;;;;;;;21.46;54.63;101813.44;5051379;28;20365;-65
2021/09/13 04:03:15;;;;;;;1.48;0.95;;;;;;;21.45;54.70;101811.75;5051081;28;20266;-66
2021/09/13 04:05:46;;;;;;;2.08;1.10;;;;;;;21.41;54.50;101805.00;5050940;28;20068;-66
2021/09/13 04:08:31;;;;;;;1.80;0.90;;;;;;;21.45;54.72;101822.38;5051257;28;20110;-66
2021/09/13 04:11:06;;;;;;;1.92;0.90;;;;;;;21.45;54.73;101813.56;5051200;28;20029;-67
2021/09/13 04:13:32;;;;;;;2.25;1.00;;;;;;;21.44;54.87;101814.53;5050510;28;20025;-66
2021/09/13 04:15:57;;;;;;;1.63;0.98;;;;;;;21.44;54.76;101811.88;5051210;28;20032;-65
2021/09/13 04:18:22;;;;;;;1.85;0.95;;;;;;;21.42;54.73;101817.31;5050272;28;20480;-65
2021/09/13 04:20:48;;;;;;;2.05;1.10;;;;;;;21.44;54.28;101817.19;5054420;28;20427;-66
2021/09/13 04:23:13;;;;;;;1.70;1.00;;;;;;;21.42;54.41;101812.00;5054725;28;20075;-65
2021/09/13 04:25:38;;;;;;;2.22;1.10;;;;;;;21.41;54.50;101809.47;5053972;28;20911;-66
2021/09/13 04:28:04;;;;;;;2.78;1.08;;;;;;;21.42;54.57;101812.00;5054750;28;20025;-65
2021/09/13 04:30:29;;;;;;;2.30;0.93;;;;;;;21.41;54.51;101812.97;5055052;28;20121;-65
2021/09/13 04:32:54;;;;;;;2.17;1.00;;;;;;;21.41;54.42;101814.78;5053756;28;20453;-66
2021/09/13 04:35:20;;;;;;;1.27;0.85;;;;;;;21.38;54.44;101813.22;5054632;28;20024;-65
2021/09/13 04:37:45;;;;;;;1.88;0.90;;;;;;;21.40;54.47;101813.09;5054790;28;20108;-65
2021/09/13 04:40:13;;;;;;;2.45;1.00;;;;;;;21.38;54.58;101807.94;5053603;28;20461;-65
2021/09/13 04:42:39;;;;;;;2.03;1.10;;;;;;;21.38;54.55;101822.03;5054555;28;20033;-66
2021/09/13 04:45:04;;;;;;;1.60;1.00;;;;;;;21.37;54.23;101816.84;5054112;28;20036;-65
2021/09/13 04:47:30;;;;;;;2.05;0.90;;;;;;;21.38;54.35;101816.72;5053476;28;20069;-65
2021/09/13 04:49:55;;;;;;;1.25;0.90;;;;;;;21.37;54.35;101815.03;5054156;28;20388;-66
2021/09/13 04:52:20;;;;;;;1.92;1.00;;;;;;;21.37;54.46;101812.38;5054352;28;20020;-64
2021/09/13 04:54:45;;;;;;;6.30;1.30;;;;;;;21.36;54.32;101813.34;5053484;28;20387;-66
2021/09/13 04:57:10;;;;;;;2.47;1.00;;;;;;;21.35;54.21;101809.00;5053819;28;20270;-66
2021/09/13 04:59:39;;;;;;;1.80;1.00;;;;;;;21.36;54.21;101812.50;5054322;28;20285;-66
2021/09/13 05:02:04;;;;;;;1.50;0.90;;;;;;;21.35;54.12;101814.31;5053205;28;20274;-66
2021/09/13 05:04:30;;;;;;;1.88;1.00;;;;;;;21.34;54.40;101814.44;5054243;28;20031;-66
2021/09/13 05:06:55;;;;;;;1.73;1.00;;;;;;;21.34;54.13;101822.38;5053791;28;20495;-66
2021/09/13 05:09:20;;;;;;;1.55;0.98;;;;;;;21.33;54.43;101821.56;5053307;28;20083;-65
2021/09/13 05:11:52;;;;;;;1.45;0.90;;;;;;;21.33;54.28;101818.91;5053832;28;20136;-65
2021/09/13 05:14:17;;;;;;;2.50;1.00;;;;;;;21.32;53.95;101833.09;5053976;28;20036;-65
2021/09/13 05:16:42;;;;;;;2.08;1.10;;;;;;;21.32;54.19;101825.16;5053134;28;20024;-66
2021/09/13 05:19:08;;;;;;;2.50;0.90;;;;;;;21.33;54.20;101831.28;5053655;28;20029;-65
2021/09/13 05:21:37;;;;;;;1.75;0.90;;;;;;;21.31;54.22;101826.09;5053815;28;20696;-66
2021/09/13 05:24:03;;;;;;;2.33;1.10;;;;;;;21.32;53.81;101832.28;5053431;28;20032;-66
2021/09/13 05:26:28;;;;;;;1.85;1.00;;;;;;;21.32;54.06;101834.94;5053742;28;20028;-64
2021/09/13 05:28:53;;;;;;;2.00;1.00;;;;;;;21.30;54.01;101824.44;5052625;28;20403;-65
2021/09/13 05:31:19;;;;;;;2.20;0.93;;;;;;;21.30;53.94;101829.75;5053266;28;20100;-65
2021/09/13 05:33:44;;;;;;;2.08;0.90;;;;;;;21.29;54.11;101829.88;5053409;28;20774;-65
2021/09/13 05:36:09;;;;;;;2.53;1.20;;;;;;;21.30;54.20;101836.84;5052453;28;20079;-64
2021/09/13 05:38:35;;;;;;;1.83;1.10;;;;;;;21.29;53.95;101838.66;5053242;28;20023;-65
2021/09/13 05:41:01;;;;;;;2.67;1.17;;;;;;;21.28;53.91;101833.47;5053209;28;20364;-65
2021/09/13 05:43:26;;;;;;;2.35;1.10;;;;;;;21.29;53.87;101840.47;5052571;28;20017;-66
2021/09/13 05:46:04;;;;;;;3.03;1.17;;;;;;;21.28;53.76;101838.78;5053112;28;20436;-65
2021/09/13 05:48:29;;;;;;;2.15;1.10;;;;;;;21.28;53.79;101842.25;5052999;28;20041;-65
2021/09/13 05:50:54;;;;;;;3.47;1.17;;;;;;;21.27;53.80;101840.59;5051969;28;20116;-66
2021/09/13 05:53:20;;;;;;;2.63;1.10;;;;;;;21.28;53.94;101844.06;5053168;28;20071;-65
2021/09/13 05:55:45;;;;;;;2.45;1.15;;;;;;;21.27;53.83;101843.25;5053176;28;20170;-65
2021/09/13 05:58:11;;;;;;;3.45;1.38;;;;;;;21.27;53.85;101847.69;5051777;28;20024;-65
2021/09/13 06:00:36;;;;;;;2.88;1.40;;;;;;;21.25;53.63;101847.81;5053027;28;20048;-64
2021/09/13 06:03:06;;;;;;;3.92;1.70;;;;;;;21.20;53.36;101849.97;5052609;28;20047;-64
2021/09/13 06:05:32;;;;;;;3.38;1.52;;;;;;;21.15;53.39;101847.69;5052011;28;20013;-65
2021/09/13 06:07:57;;;;;;;3.42;1.60;;;;;;;21.14;53.27;101848.66;5052325;28;20020;-65
2021/09/13 06:10:22;;;;;;;3.08;1.45;;;;;;;21.15;53.06;101845.03;5052710;28;20487;-64
2021/09/13 06:12:48;;;;;;;5.65;1.75;;;;;;;21.14;53.27;101850.47;5051728;28;20108;-65
2021/09/13 06:15:13;;;;;;;3.28;1.50;;;;;;;21.16;52.96;101848.56;5052942;28;20025;-65
2021/09/13 06:17:39;;;;;;;4.82;1.45;;;;;;;21.18;53.24;101851.91;5052615;28;20108;-65
2021/09/13 06:20:04;;;;;;;2.95;1.55;;;;;;;21.18;53.49;101850.09;5051581;28;20108;-66
2021/09/13 06:22:30;;;;;;;3.17;1.30;;;;;;;21.20;53.56;101853.50;5052421;28;20040;-64
2021/09/13 06:24:56;;;;;;;3.65;1.45;;;;;;;21.23;53.69;101855.03;5051367;28;20422;-66
2021/09/13 06:27:21;;;;;;;3.15;1.52;;;;;;;21.25;53.71;101863.72;5052744;28;20025;-64
2021/09/13 06:29:47;;;;;;;5.05;1.40;;;;;;;21.26;53.84;101867.22;5052449;28;20104;-64
2021/09/13 06:32:12;;;;;;;3.65;1.60;;;;;;;21.26;53.75;101862.75;5051651;28;20403;-64
2021/09/13 06:34:37;;;;;;;2.93;1.40;;;;;;;21.28;54.21;101863.47;5052401;28;20498;-65
2021/09/13 06:37:03;;;;;;;3.53;1.67;;;;;;;21.28;54.28;101860.81;5052069;28;20266;-63
2021/09/13 06:39:28;;;;;;;3.03;1.45;;;;;;;21.33;54.54;101863.09;5051693;28;20040;-63
2021/09/13 06:41:53;;;;;;;3.55;1.33;;;;;;;21.32;54.28;101856.97;5051684;28;20056;-63
2021/09/13 06:44:22;;;;;;;3.67;1.48;;;;;;;21.34;54.53;101859.50;5053292;28;20056;-63
2021/09/13 06:47:00;;;;;;;5.57;1.70;;;;;;;21.38;54.44;101860.97;5051016;28;20053;-65
2021/09/13 06:49:26;;;;;;;3.63;1.50;;;;;;;21.38;54.95;101872.41;5052296;28;20044;-62
2021/09/13 06:51:51;;;;;;;3.50;1.47;;;;;;;21.40;54.96;101864.31;5052240;28;20021;-63
2021/09/13 06:54:16;;;;;;;4.95;1.88;;;;;;;21.44;54.80;101867.56;5051844;28;20320;-63
2021/09/13 06:56:41;;;;;;;4.60;1.80;;;;;;;21.46;54.90;101865.63;5052553;28;20037;-64
2021/09/13 06:59:07;;;;;;;4.00;1.63;;;;;;;21.48;55.13;101864.59;5052099;28;20038;-63
2021/09/13 07:01:32;;;;;;;3.80;1.70;;;;;;;21.51;55.15;101866.16;5051893;28;20079;-64
2021/09/13 07:03:58;;;;;;;4.55;1.90;;;;;;;21.52;55.03;101866.03;5052693;28;20021;-62
2021/09/13 07:06:27;;;;;;;5.25;1.90;;;;;;;21.54;54.95;101858.78;5052878;28;20175;-61
2021/09/13 07:08:52;;;;;;;5.13;1.60;;;;;;;21.58;55.16;101858.56;5051321;28;20021;-63
2021/09/13 07:11:18;;;;;;;3.55;1.60;;;;;;;21.61;55.33;101853.84;5052456;28;20021;-63
2021/09/13 07:13:43;;;;;;;4.93;1.85;;;;;;;21.63;54.83;101859.00;5052477;28;20110;-63
2021/09/13 07:16:08;;;;;;;4.22;1.58;;;;;;;21.66;54.97;101854.28;5051430;28;20025;-65
2021/09/13 07:18:34;;;;;;;4.63;1.73;;;;;;;21.69;55.01;101855.88;5052243;28;20059;-63
2021/09/13 07:20:59;;;;;;;4.47;1.77;;;;;;;21.70;54.89;101858.41;5051926;28;20100;-63
2021/09/13 07:23:24;;;;;;;5.72;2.10;;;;;;;21.72;55.06;101860.94;5051737;28;20383;-62
2021/09/13 07:25:50;;;;;;;5.63;1.75;;;;;;;21.72;54.97;101861.75;5052692;28;20033;-62
2021/09/13 07:28:15;;;;;;;5.18;1.75;;;;;;;21.74;54.84;101862.47;5052028;28;20528;-65
2021/09/13 07:30:41;;;;;;;5.78;1.90;;;;;;;21.75;55.11;101866.00;5052185;28;20111;-64
2021/09/13 07:33:06;;;;;;;3.67;1.80;;;;;;;21.76;55.08;101872.97;5051705;28;20813;-62
2021/09/13 07:35:31;;;;;;;6.23;1.57;;;;;;;21.77;54.86;101874.66;5051575;28;20029;-63
2021/09/13 07:37:57;;;;;;;3.20;1.42;;;;;;;21.79;54.95;101878.03;5051934;28;20281;-64
2021/09/13 07:40:22;;;;;;;4.18;1.70;;;;;;;21.79;55.07;101870.06;5052362;28;20103;-63
2021/09/13 07:42:48;;;;;;;3.87;1.30;;;;;;;21.79;54.71;101872.72;5051226;28;20021;-63
2021/09/13 07:45:13;;;;;;;4.00;1.45;;;;;;;21.79;55.05;101877.19;5052294;28;20268;-64
2021/09/13 07:47:38;;;;;;;3.78;1.45;;;;;;;21.79;54.90;101879.84;5051966;28;20049;-63
2021/09/13 07:50:06;;;;;;;4.03;1.48;;;;;;;21.79;55.02;101880.69;5050912;28;20419;-61
2021/09/13 07:52:31;;;;;;;4.97;1.58;;;;;;;21.78;55.15;101886.97;5052359;28;20021;-62
2021/09/13 07:54:59;;;;;;;5.35;1.52;;;;;;;21.77;54.96;101887.94;5055782;28;20087;-65
2021/09/13 07:57:25;;;;;;;3.65;1.40;;;;;;;21.77;54.90;101893.22;5055190;28;20381;-64
2021/09/13 07:59:51;;;;;;;4.72;1.90;;;;;;;21.79;54.98;101890.47;5055496;28;20108;-65
2021/09/13 08:02:16;;;;;;;2.90;1.35;;;;;;;21.79;55.02;101898.41;5055597;28;20025;-66
2021/09/13 08:04:42;;;;;;;3.53;1.60;;;;;;;21.80;55.13;101900.13;5054821;28;20021;-62
2021/09/13 08:07:07;;;;;;;4.05;1.80;;;;;;;21.78;55.07;101894.94;5057112;28;20025;-70
2021/09/13 08:09:32;;;;;;;4.75;1.55;;;;;;;21.80;55.23;101900.13;5055914;28;20025;-64
2021/09/13 08:11:58;;;;;;;3.88;1.60;;;;;;;21.79;55.28;101906.38;5054582;28;20021;-65
2021/09/13 08:14:24;;;;;;;4.72;1.40;;;;;;;21.79;55.32;101903.72;5055389;28;20472;-65
2021/09/13 08:16:49;;;;;;;4.45;1.60;;;;;;;21.77;55.34;101900.38;5055359;28;20028;-64
2021/09/13 08:19:15;;;;;;;5.25;1.60;;;;;;;21.76;55.34;101899.50;5054521;28;20025;-63
2021/09/13 08:21:42;;;;;;;3.67;1.70;;;;;;;21.76;55.41;101901.31;5055346;28;20480;-65
2021/09/13 08:24:08;;;;;;;3.75;1.60;;;;;;;21.73;55.47;101899.78;5055056;28;20188;-64
2021/09/13 08:26:34;;;;;;;4.93;1.20;;;;;;;21.72;55.30;101906.88;5054453;28;20037;-66
2021/09/13 08:28:59;;;;;;;5.75;1.33;;;;;;;21.70;55.49;101911.47;5055322;28;20055;-63
2021/09/13 08:31:27;;;;;;;7.05;1.60;;;;;;;21.71;55.58;101914.94;5055267;28;20025;-62
2021/09/13 08:33:53;;;;;;;3.78;1.58;;;;;;;21.70;55.56;101913.28;5053968;28;20119;-62
2021/09/13 08:36:18;;;;;;;4.43;2.00;;;;;;;21.63;54.76;101917.38;5055245;28;20059;-62
2021/09/13 08:38:43;;;;;;;5.05;2.08;;;;;;;21.52;54.16;101913.78;5054641;28;20025;-62
2021/09/13 08:41:09;;;;;;;5.45;1.80;;;;;;;21.45;54.06;101912.53;5054725;28;20025;-64
2021/09/13 08:43:34;;;;;;;4.97;1.90;;;;;;;21.37;54.18;101915.78;5055153;28;20025;-65
2021/09/13 08:46:07;;;;;;;6.07;1.60;;;;;;;21.34;54.07;101918.66;5053838;28;20036;-70
2021/09/13 08:48:39;;;;;;;5.60;1.73;;;;;;;21.34;54.73;101910.72;5055153;28;20045;-72
2021/09/13 08:53:53;;;;;;;5.53;1.60;;;;;;;21.40;54.89;101911.22;5054266;28;20037;-66
2021/09/13 08:56:34;;;;;;;4.00;1.25;;;;;;;21.43;54.96;101909.16;5054590;28;20116;-65
2021/09/13 08:59:02;;;;;;;4.82;1.20;;;;;;;21.44;54.74;101910.81;5054333;28;20017;-66
2021/09/13 09:01:28;;;;;;;4.32;1.35;;;;;;;21.48;54.91;101922.06;5053803;28;20021;-63
2021/09/13 09:03:57;;;;;;;4.07;1.17;;;;;;;21.50;54.99;101928.13;5054385;28;20052;-65
2021/09/13 09:06:37;;;;;;;7.53;1.30;;;;;;;21.50;54.79;101926.28;5053819;28;20032;-62
2021/09/13 09:09:17;;;;;;;3.90;1.30;;;;;;;21.48;54.58;101917.63;5053304;28;20074;-62
2021/09/13 09:11:56;;;;;;;4.25;1.08;;;;;;;21.51;54.97;101928.00;5056217;28;20031;-63
2021/09/13 09:14:42;;;;;;;3.35;1.35;;;;;;;21.53;54.99;101928.72;5054659;28;20040;-63
2021/09/13 09:17:19;;;;;;;4.05;1.20;;;;;;;21.55;55.11;101931.25;5054133;28;20484;-62
2021/09/13 09:19:44;;;;;;;4.20;1.10;;;;;;;21.58;55.07;101932.81;5054712;28;20024;-61
2021/09/13 09:22:24;;;;;;;6.10;1.30;;;;;;;21.61;55.34;101941.38;5053530;28;20091;-60
2021/09/13 09:24:51;;;;;;;5.05;1.10;;;;;;;21.62;55.30;101937.75;5054178;28;20083;-62
2021/09/13 09:27:17;;;;;;;5.05;1.02;;;;;;;21.65;55.14;101932.22;5054453;28;20025;-61
2021/09/13 09:29:43;;;;;;;4.65;0.95;;;;;;;21.66;55.34;101923.28;5058140;28;20082;-61
2021/09/13 09:32:08;;;;;;;3.95;1.50;;;;;;;21.69;55.33;101932.81;5059489;28;20017;-62
2021/09/13 09:34:36;;;;;;;5.00;1.45;;;;;;;21.70;55.08;101932.69;5060069;28;20036;-62
2021/09/13 09:37:05;;;;;;;4.57;1.20;;;;;;;21.71;55.27;101923.78;5058911;28;20518;-60
2021/09/13 09:39:47;;;;;;;3.85;0.90;;;;;;;21.71;55.26;101926.44;5059929;28;20017;-62
2021/09/13 09:42:14;;;;;;;3.47;0.90;;;;;;;21.74;55.17;101928.81;5059055;28;20107;-61
2021/09/13 09:44:45;;;;;;;6.80;1.23;;;;;;;21.77;55.20;101918.94;5059879;28;20096;-63
2021/09/13 09:47:13;;;;;;;5.75;1.20;;;;;;;21.77;55.27;101919.78;5060160;28;20059;-63
2021/09/13 09:49:51;;;;;;;3.25;1.05;;;;;;;21.81;55.68;101917.72;5054571;28;20059;-62
2021/09/13 09:52:40;;;;;;;3.60;1.00;;;;;;;21.83;55.59;101919.28;5055016;28;20021;-65
2021/09/13 09:55:16;;;;;;;3.33;1.33;;;;;;;21.85;55.51;101914.69;5053899;28;20060;-62
2021/09/13 09:57:44;;;;;;;3.05;1.02;;;;;;;21.87;55.73;101915.44;5054257;28;20219;-63
2021/09/13 10:00:23;;;;;;;3.10;0.82;;;;;;;21.90;55.78;101911.66;5053662;28;20029;-62
2021/09/13 10:02:49;;;;;;;3.17;1.00;;;;;;;21.92;55.60;101913.25;5053467;28;20037;-61
2021/09/13 10:05:15;;;;;;;3.30;1.10;;;;;;;21.93;55.52;101911.41;5053117;28;20468;-63
2021/09/13 10:07:44;;;;;;;2.85;0.88;;;;;;;21.92;55.95;101909.72;5053810;28;20107;-63
2021/09/13 10:10:13;;;;;;;3.08;0.90;;;;;;;21.93;55.83;101900.81;5052309;28;20079;-62
2021/09/13 10:12:42;;;;;;;3.83;1.20;;;;;;;21.94;55.94;101910.47;5053628;28;20472;-62
2021/09/13 10:15:08;;;;;;;2.95;1.00;;;;;;;21.89;55.58;101894.06;5052853;28;20438;-65
2021/09/13 10:17:34;;;;;;;3.20;0.80;;;;;;;21.94;55.98;101907.81;5051426;28;20037;-63
2021/09/13 10:20:01;;;;;;;4.45;0.90;;;;;;;21.95;55.93;101906.81;5052944;28;20108;-63
2021/09/13 10:22:29;;;;;;;2.83;1.00;;;;;;;21.95;55.99;101904.16;5053588;28;20027;-65
2021/09/13 10:24:57;;;;;;;3.60;0.70;;;;;;;21.93;55.68;101901.63;5052407;28;20029;-65
2021/09/13 10:27:23;;;;;;;2.53;0.90;;;;;;;21.92;55.67;101904.41;5053321;28;20100;-64
2021/09/13 10:30:12;;;;;;;4.03;0.80;;;;;;;21.91;55.72;101895.63;5053006;28;20025;-66
2021/09/13 10:32:37;;;;;;;4.28;1.23;;;;;;;21.94;55.78;101902.50;5052486;28;20033;-63
2021/09/13 10:35:03;;;;;;;4.20;1.20;;;;;;;21.93;55.99;101898.97;5053097;28;20036;-66
2021/09/13 10:37:40;;;;;;;2.53;0.90;;;;;;;21.95;56.22;101896.19;5053243;28;20108;-64
2021/09/13 10:40:25;;;;;;;2.95;1.15;;;;;;;21.97;55.86;101896.94;5051665;28;20025;-65
2021/09/13 10:42:54;;;;;;;3.28;0.95;;;;;;;21.91;55.77;101882.34;5052319;28;20040;-65
2021/09/13 10:45:27;;;;;;;3.80;0.98;;;;;;;21.96;55.92;101889.09;5052247;28;20123;-65
2021/09/13 10:48:17;;;;;;;3.83;0.90;;;;;;;21.99;56.66;101886.19;5052307;28;20048;-65
2021/09/13 10:50:56;;;;;;;2.72;0.85;;;;;;;21.99;56.38;101888.84;5052639;28;20025;-65
2021/09/13 10:53:22;;;;;;;5.78;1.10;;;;;;;21.99;56.43;101881.72;5051445;28;20456;-63
2021/09/13 10:55:58;;;;;;;3.95;1.00;;;;;;;22.01;56.75;101876.28;5052745;28;20032;-64
2021/09/13 10:58:30;;;;;;;4.28;1.20;;;;;;;22.03;56.66;101877.00;5053443;28;20039;-63
2021/09/13 11:01:05;;;;;;;3.70;0.90;;;;;;;22.02;56.76;101873.50;5052023;28;20031;-64
2021/09/13 11:03:33;;;;;;;3.55;0.90;;;;;;;22.01;56.69;101874.47;5052657;28;20361;-66
2021/09/13 11:06:14;;;;;;;2.53;0.98;;;;;;;22.02;56.80;101873.50;5052098;28;20029;-66
2021/09/13 11:08:56;;;;;;;3.40;1.00;;;;;;;22.02;56.71;101864.72;5053315;28;20021;-63
2021/09/13 11:11:29;;;;;;;2.92;1.00;;;;;;;22.04;56.76;101870.75;5052669;28;20377;-61
2021/09/13 11:14:21;;;;;;;5.18;1.02;;;;;;;22.02;56.56;101865.56;5051653;28;20480;-61
2021/09/13 11:16:58;;;;;;;9.85;2.28;;;;;;;22.03;56.54;101861.06;5052991;28;20032;-63
2021/09/13 11:19:26;;;;;;;3.83;1.30;;;;;;;22.03;56.43;101861.94;5052368;28;20104;-63
2021/09/13 11:22:05;;;;;;;4.05;0.90;;;;;;;22.04;56.24;101858.28;5051050;28;20070;-63
2021/09/13 11:24:37;;;;;;;3.55;0.90;;;;;;;22.04;56.45;101852.16;5051884;28;20495;-62
2021/09/13 11:27:13;;;;;;;3.17;0.80;;;;;;;22.04;56.26;101844.19;5052636;28;20028;-64
2021/09/13 11:29:41;;;;;;;3.03;0.88;;;;;;;22.05;56.11;101852.03;5054984;28;20492;-63